createdAt,value
2023-05-20T00:00:35.716Z,101896.09
2023-05-20T00:03:02.303Z,101899.31
2023-05-20T00:05:28.928Z,101904.09
2023-05-20T00:07:55.444Z,101900.53
2023-05-20T00:10:21.943Z,101898.16
2023-05-20T00:12:48.419Z,101896.94
2023-05-20T00:15:15.063Z,101893.78
2023-05-20T00:17:41.591Z,101892.59
2023-05-20T00:20:08.605Z,101899.75
2023-05-20T00:22:35.078Z,101891.38
2023-05-20T00:25:01.587Z,101898.19
2023-05-20T00:27:28.135Z,101900.16
2023-05-20T00:29:54.651Z,101897.00
2023-05-20T00:32:21.217Z,101898.59
2023-05-20T00:34:57.370Z,101898.97
2023-05-20T00:37:24.252Z,101893.81
2023-05-20T00:39:51.171Z,101898.59
2023-05-20T00:42:28.261Z,101902.16
2023-05-20T00:44:56.015Z,101898.56
2023-05-20T00:47:26.813Z,101892.59
2023-05-20T00:49:53.567Z,101902.16
2023-05-20T00:52:21.326Z,101896.19
2023-05-20T00:54:47.879Z,101899.38
2023-05-20T00:57:15.358Z,101907.34
2023-05-20T00:59:43.496Z,101900.97
2023-05-20T01:02:11.835Z,101899.41
2023-05-20T01:04:38.631Z,101895.41
2023-05-20T01:07:07.323Z,101902.16
2023-05-20T01:09:33.978Z,101892.22
2023-05-20T01:12:06.952Z,101893.03
2023-05-20T01:14:39.531Z,101891.03
2023-05-20T01:17:10.999Z,101888.25
2023-05-20T01:19:44.126Z,101894.63
2023-05-20T01:22:15.187Z,101888.25
2023-05-20T01:24:43.064Z,101893.81
2023-05-20T01:27:13.566Z,101897.81
2023-05-20T01:29:42.144Z,101897.00
2023-05-20T01:32:28.582Z,101884.25
2023-05-20T01:34:56.289Z,101895.00
2023-05-20T01:37:25.227Z,101885.47
2023-05-20T01:39:53.995Z,101890.66
2023-05-20T01:42:21.050Z,101885.09
2023-05-20T01:44:47.625Z,101883.47
2023-05-20T01:47:14.147Z,101891.44
2023-05-20T01:49:41.488Z,101881.09
2023-05-20T01:52:08.070Z,101873.94
2023-05-20T01:54:34.603Z,101887.06
2023-05-20T01:57:01.581Z,101873.91
2023-05-20T01:59:28.131Z,101876.28
2023-05-20T02:01:54.661Z,101877.09
2023-05-20T02:04:22.646Z,101875.50
2023-05-20T02:06:49.244Z,101875.91
2023-05-20T02:09:15.917Z,101876.28
2023-05-20T02:11:42.438Z,101883.06
2023-05-20T02:14:08.949Z,101885.03
2023-05-20T02:16:35.523Z,101877.88
2023-05-20T02:19:02.228Z,101881.06
2023-05-20T02:21:28.881Z,101878.66
2023-05-20T02:23:55.381Z,101886.19
2023-05-20T02:26:22.680Z,101882.22
2023-05-20T02:28:50.812Z,101881.84
2023-05-20T02:31:17.781Z,101876.22
2023-05-20T02:33:45.206Z,101890.13
2023-05-20T02:36:11.854Z,101888.16
2023-05-20T02:38:38.417Z,101885.75
2023-05-20T02:41:05.023Z,101880.16
2023-05-20T02:43:32.772Z,101882.56
2023-05-20T02:45:59.323Z,101876.19
2023-05-20T02:48:26.346Z,101879.34
2023-05-20T02:50:53.192Z,101882.16
2023-05-20T02:53:19.750Z,101880.94
2023-05-20T02:55:50.520Z,101878.56
2023-05-20T02:58:17.326Z,101873.78
2023-05-20T03:00:44.407Z,101870.59
2023-05-20T03:03:11.176Z,101864.63
2023-05-20T03:05:38.212Z,101869.78
2023-05-20T03:08:10.008Z,101876.94
2023-05-20T03:10:39.784Z,101870.56
2023-05-20T03:13:11.556Z,101860.63
2023-05-20T03:15:39.292Z,101868.19
2023-05-20T03:18:07.228Z,101878.94
2023-05-20T03:20:36.897Z,101874.53
2023-05-20T03:23:03.798Z,101873.34
2023-05-20T03:25:30.980Z,101877.72
2023-05-20T03:28:00.735Z,101879.69
2023-05-20T03:30:28.088Z,101880.47
2023-05-20T03:32:58.633Z,101875.72
2023-05-20T03:35:27.893Z,101876.88
2023-05-20T03:37:54.408Z,101881.25
2023-05-20T03:40:21.341Z,101879.25
2023-05-20T03:42:48.023Z,101867.28
2023-05-20T03:45:14.566Z,101870.47
2023-05-20T03:47:41.251Z,101859.34
2023-05-20T03:50:08.135Z,101868.13
2023-05-20T03:52:34.794Z,101860.94
2023-05-20T03:55:01.433Z,101857.75
2023-05-20T03:57:29.425Z,101856.19
2023-05-20T03:59:56.125Z,101863.31
2023-05-20T04:02:22.889Z,101869.69
2023-05-20T04:04:53.033Z,101865.72
2023-05-20T04:07:19.841Z,101861.31
2023-05-20T04:09:46.757Z,101855.38
2023-05-20T04:12:13.957Z,101855.38
2023-05-20T04:14:42.220Z,101850.19
2023-05-20T04:17:09.547Z,101854.19
2023-05-20T04:19:38.226Z,101859.75
2023-05-20T04:22:04.919Z,101849.41
2023-05-20T04:24:31.432Z,101859.38
2023-05-20T04:26:57.980Z,101861.00
2023-05-20T04:29:24.613Z,101861.41
2023-05-20T04:31:52.101Z,101869.78
2023-05-20T04:34:20.220Z,101872.56
2023-05-20T04:36:47.121Z,101865.00
2023-05-20T04:39:13.989Z,101867.78
2023-05-20T04:41:40.520Z,101871.00
2023-05-20T04:44:07.286Z,101864.63
2023-05-20T04:46:33.987Z,101871.38
2023-05-20T04:49:00.632Z,101866.63
2023-05-20T04:51:27.302Z,101871.41
2023-05-20T04:53:53.799Z,101867.84
2023-05-20T04:56:20.901Z,101865.06
2023-05-20T04:58:47.479Z,101870.69
2023-05-20T05:01:14.049Z,101867.53
2023-05-20T05:03:40.603Z,101854.78
2023-05-20T05:06:07.124Z,101859.59
2023-05-20T05:08:33.614Z,101861.19
2023-05-20T05:11:00.134Z,101856.41
2023-05-20T05:13:26.776Z,101850.06
2023-05-20T05:16:00.434Z,101856.41
2023-05-20T05:18:27.320Z,101850.84
2023-05-20T05:21:04.275Z,101847.66
2023-05-20T05:23:30.833Z,101845.28
2023-05-20T05:25:57.618Z,101852.81
2023-05-20T05:28:24.624Z,101849.25
2023-05-20T05:30:51.415Z,101847.25
2023-05-20T05:33:17.936Z,101852.41
2023-05-20T05:35:44.648Z,101846.03
2023-05-20T05:38:11.142Z,101840.06
2023-05-20T05:40:37.740Z,101847.59
2023-05-20T05:43:04.442Z,101838.44
2023-05-20T05:45:31.177Z,101845.59
2023-05-20T05:47:57.946Z,101845.19
2023-05-20T05:50:24.529Z,101841.63
2023-05-20T05:52:51.055Z,101832.03
2023-05-20T05:55:18.460Z,101831.66
2023-05-20T05:57:45.486Z,101837.97
2023-05-20T06:00:12.481Z,101836.41
2023-05-20T06:02:39.199Z,101834.75
2023-05-20T06:05:06.420Z,101845.09
2023-05-20T06:07:32.923Z,101837.09
2023-05-20T06:09:59.531Z,101846.25
2023-05-20T06:12:26.190Z,101844.63
2023-05-20T06:14:52.747Z,101832.28
2023-05-20T06:17:19.437Z,101829.84
2023-05-20T06:19:46.278Z,101819.84
2023-05-20T06:22:12.819Z,101826.56
2023-05-20T06:24:39.360Z,101830.13
2023-05-20T06:27:06.163Z,101839.66
2023-05-20T06:29:32.665Z,101828.44
2023-05-20T06:31:59.803Z,101829.19
2023-05-20T06:34:26.424Z,101825.56
2023-05-20T06:36:53.572Z,101825.50
2023-05-20T06:39:20.150Z,101836.63
2023-05-20T06:41:46.662Z,101827.34
2023-05-20T06:44:13.165Z,101811.28
2023-05-20T06:46:39.721Z,101821.22
2023-05-20T06:49:06.288Z,101819.59
2023-05-20T06:51:32.852Z,101815.16
2023-05-20T06:53:59.359Z,101813.94
2023-05-20T06:56:26.087Z,101827.91
2023-05-20T06:58:52.686Z,101818.31
2023-05-20T07:01:19.277Z,101813.53
2023-05-20T07:03:45.912Z,101821.59
2023-05-20T07:06:12.426Z,101817.22
2023-05-20T07:08:39.102Z,101812.00
2023-05-20T07:11:05.868Z,101820.28
2023-05-20T07:13:32.409Z,101816.22
2023-05-20T07:15:59.045Z,101824.16
2023-05-20T07:18:25.674Z,101828.38
2023-05-20T07:20:52.915Z,101825.06
2023-05-20T07:23:19.509Z,101826.13
2023-05-20T07:25:46.097Z,101815.34
2023-05-20T07:28:16.135Z,101823.28
2023-05-20T07:30:42.799Z,101810.97
2023-05-20T07:33:09.308Z,101816.59
2023-05-20T07:35:36.301Z,101808.59
2023-05-20T07:38:03.048Z,101806.63
2023-05-20T07:40:29.544Z,101811.81
2023-05-20T07:42:56.158Z,101804.53
2023-05-20T07:45:22.689Z,101803.69
2023-05-20T07:47:50.688Z,101805.25
2023-05-20T07:50:17.202Z,101808.88
2023-05-20T07:52:55.280Z,101817.25
2023-05-20T07:55:23.601Z,101799.47
2023-05-20T07:57:50.406Z,101806.22
2023-05-20T08:00:17.024Z,101808.59
2023-05-20T08:02:43.766Z,101801.31
2023-05-20T08:05:10.562Z,101814.94
2023-05-20T08:07:37.090Z,101811.63
2023-05-20T08:10:03.868Z,101810.38
2023-05-20T08:12:30.357Z,101808.69
2023-05-20T08:14:56.853Z,101806.31
2023-05-20T08:17:23.489Z,101811.03
2023-05-20T08:19:50.213Z,101813.03
2023-05-20T08:22:17.114Z,101809.72
2023-05-20T08:24:43.709Z,101810.00
2023-05-20T08:27:10.230Z,101803.50
2023-05-20T08:29:36.853Z,101802.13
2023-05-20T08:32:03.433Z,101799.84
2023-05-20T08:34:29.964Z,101797.91
2023-05-20T08:36:57.777Z,101806.63
2023-05-20T08:39:26.337Z,101802.03
2023-05-20T08:41:52.970Z,101797.16
2023-05-20T08:44:21.418Z,101800.97
2023-05-20T08:46:48.892Z,101803.69
2023-05-20T08:49:15.559Z,101786.31
2023-05-20T08:51:43.111Z,101786.06
2023-05-20T08:54:10.081Z,101796.28
2023-05-20T08:56:36.932Z,101783.09
2023-05-20T08:59:03.891Z,101796.28
2023-05-20T09:01:30.486Z,101793.72
2023-05-20T09:03:57.114Z,101797.66
2023-05-20T09:06:24.159Z,101790.91
2023-05-20T09:08:53.876Z,101792.97
2023-05-20T09:11:22.320Z,101796.09
2023-05-20T09:13:50.463Z,101784.88
2023-05-20T09:16:17.097Z,101792.34
2023-05-20T09:18:43.741Z,101794.31
2023-05-20T09:21:10.615Z,101788.53
2023-05-20T09:23:38.493Z,101783.34
2023-05-20T09:26:05.657Z,101792.06
2023-05-20T09:28:32.240Z,101794.75
2023-05-20T09:30:59.840Z,101804.81
2023-05-20T09:33:31.809Z,101787.25
2023-05-20T09:36:04.295Z,101795.13
2023-05-20T09:38:37.791Z,101796.03
2023-05-20T09:41:13.726Z,101787.25
2023-05-20T09:43:40.883Z,101793.34
2023-05-20T09:46:08.390Z,101788.47
2023-05-20T09:48:40.992Z,101787.25
2023-05-20T09:51:08.260Z,101780.31
2023-05-20T09:53:36.226Z,101789.00
2023-05-20T09:56:03.359Z,101782.84
2023-05-20T09:58:30.577Z,101788.41
2023-05-20T10:00:57.458Z,101798.09
2023-05-20T10:03:25.159Z,101791.06
2023-05-20T10:06:04.761Z,101782.81
2023-05-20T10:08:48.026Z,101782.69
2023-05-20T10:11:24.201Z,101782.69
2023-05-20T10:14:12.736Z,101759.09
2023-05-20T10:17:08.747Z,101781.31
2023-05-20T10:19:35.957Z,101782.41
2023-05-20T10:22:05.684Z,101775.31
2023-05-20T10:24:41.272Z,101776.03
2023-05-20T10:27:10.078Z,101753.13
2023-05-20T10:29:51.318Z,101756.81
2023-05-20T10:32:25.889Z,101756.22
2023-05-20T10:34:52.904Z,101746.50
2023-05-20T10:37:33.534Z,101752.81
2023-05-20T10:40:20.169Z,101752.03
2023-05-20T10:42:48.090Z,101733.00
2023-05-20T10:45:37.426Z,101738.72
2023-05-20T10:48:04.411Z,101732.19
2023-05-20T10:50:36.369Z,101722.50
2023-05-20T10:53:13.336Z,101726.09
2023-05-20T10:55:53.414Z,101730.97
2023-05-20T10:58:21.392Z,101725.72
2023-05-20T11:00:50.915Z,101719.63
2023-05-20T11:03:18.659Z,101718.03
2023-05-20T11:05:47.281Z,101713.16
2023-05-20T11:10:47.203Z,101696.53
2023-05-20T11:13:15.396Z,101700.63
2023-05-20T11:15:42.405Z,101707.06
2023-05-20T11:18:12.401Z,101688.75
2023-05-20T11:20:39.010Z,101700.16
2023-05-20T11:23:06.728Z,101704.13
2023-05-20T11:25:33.588Z,101703.38
2023-05-20T11:28:00.253Z,101702.16
2023-05-20T11:30:26.967Z,101696.53
2023-05-20T11:33:03.999Z,101690.00
2023-05-20T11:35:32.212Z,101691.03
2023-05-20T11:38:01.760Z,101701.03
2023-05-20T11:40:32.922Z,101698.13
2023-05-20T11:43:05.872Z,101690.97
2023-05-20T11:45:45.468Z,101687.34
2023-05-20T11:48:12.746Z,101674.22
2023-05-20T11:50:41.036Z,101680.63
2023-05-20T11:53:10.103Z,101668.31
2023-05-20T11:55:53.869Z,101651.94
2023-05-20T11:58:23.610Z,101655.81
2023-05-20T12:00:55.005Z,101654.75
2023-05-20T12:03:26.176Z,101643.59
2023-05-20T12:05:53.462Z,101658.75
2023-05-20T12:08:19.971Z,101656.66
2023-05-20T12:10:46.967Z,101635.56
2023-05-20T12:13:13.793Z,101637.34
2023-05-20T12:15:41.194Z,101634.41
2023-05-20T12:18:08.051Z,101629.75
2023-05-20T12:20:35.093Z,101621.72
2023-05-20T12:23:02.203Z,101629.22
2023-05-20T12:25:29.561Z,101628.66
2023-05-20T12:27:56.402Z,101628.94
2023-05-20T12:30:23.984Z,101629.56
2023-05-20T12:32:52.233Z,101620.44
2023-05-20T12:35:40.445Z,101628.25
2023-05-20T12:38:07.588Z,101622.41
2023-05-20T12:40:35.229Z,101627.53
2023-05-20T12:43:03.402Z,101612.97
2023-05-20T12:45:30.430Z,101625.31
2023-05-20T12:47:57.541Z,101612.97
2023-05-20T12:50:24.699Z,101616.47
2023-05-20T12:52:51.390Z,101617.94
2023-05-20T12:55:17.938Z,101625.50
2023-05-20T12:57:45.630Z,101615.91
2023-05-20T13:00:13.119Z,101611.47
2023-05-20T13:02:42.226Z,101621.88
2023-05-20T13:05:09.727Z,101615.09
2023-05-20T13:07:36.375Z,101611.66
2023-05-20T13:10:03.038Z,101610.06
2023-05-20T13:12:29.773Z,101611.66
2023-05-20T13:14:56.282Z,101597.34
2023-05-20T13:17:22.852Z,101597.38
2023-05-20T13:19:49.403Z,101592.16
2023-05-20T13:22:16.058Z,101582.41
2023-05-20T13:24:42.620Z,101581.47
2023-05-20T13:27:09.135Z,101580.81
2023-05-20T13:29:35.771Z,101582.25
2023-05-20T13:32:02.285Z,101597.31
2023-05-20T13:34:30.385Z,101589.31
2023-05-20T13:36:56.999Z,101584.84
2023-05-20T13:39:23.581Z,101581.41
2023-05-20T13:41:50.788Z,101575.22
2023-05-20T13:44:17.301Z,101591.41
2023-05-20T13:46:43.962Z,101583.22
2023-05-20T13:49:10.514Z,101590.56
2023-05-20T13:51:37.028Z,101581.00
2023-05-20T13:54:03.947Z,101577.53
2023-05-20T13:56:30.486Z,101581.47
2023-05-20T13:58:57.269Z,101578.97
2023-05-20T14:01:24.211Z,101570.44
2023-05-20T14:03:50.980Z,101571.75
2023-05-20T14:06:18.873Z,101577.91
2023-05-20T14:08:46.189Z,101564.25
2023-05-20T14:11:13.059Z,101561.91
2023-05-20T14:13:39.664Z,101570.06
2023-05-20T14:16:06.605Z,101557.78
2023-05-20T14:18:33.148Z,101562.16
2023-05-20T14:20:59.721Z,101553.31
2023-05-20T14:23:27.325Z,101555.25
2023-05-20T14:25:53.891Z,101544.06
2023-05-20T14:28:20.384Z,101552.81
2023-05-20T14:30:46.917Z,101537.22
2023-05-20T14:33:13.478Z,101531.66
2023-05-20T14:35:39.998Z,101548.31
2023-05-20T14:38:06.933Z,101541.69
2023-05-20T14:40:33.852Z,101534.38
2023-05-20T14:43:00.621Z,101528.84
2023-05-20T14:45:27.123Z,101537.78
2023-05-20T14:47:56.434Z,101541.19
2023-05-20T14:50:22.977Z,101535.94
2023-05-20T14:52:49.684Z,101526.34
2023-05-20T14:55:16.254Z,101527.66
2023-05-20T14:57:43.473Z,101532.44
2023-05-20T15:00:10.647Z,101523.09
2023-05-20T15:02:37.430Z,101518.44
2023-05-20T15:05:04.206Z,101518.63
2023-05-20T15:07:30.766Z,101532.81
2023-05-20T15:09:57.259Z,101523.47
2023-05-20T15:12:23.836Z,101520.69
2023-05-20T15:14:50.344Z,101527.66
2023-05-20T15:17:17.109Z,101521.69
2023-05-20T15:19:43.667Z,101532.69
2023-05-20T15:22:10.235Z,101529.72
2023-05-20T15:24:36.750Z,101524.16
2023-05-20T15:27:03.849Z,101525.84
2023-05-20T15:29:33.425Z,101530.59
2023-05-20T15:32:00.046Z,101521.50
2023-05-20T15:34:26.527Z,101509.22
2023-05-20T15:36:53.136Z,101522.88
2023-05-20T15:39:19.652Z,101525.81
2023-05-20T15:41:48.005Z,101521.81
2023-05-20T15:44:14.573Z,101517.66
2023-05-20T15:46:44.913Z,101530.75
2023-05-20T15:49:12.678Z,101526.56
2023-05-20T15:51:39.921Z,101519.53
2023-05-20T15:54:07.921Z,101518.00
2023-05-20T15:56:34.487Z,101516.25
2023-05-20T15:59:01.049Z,101510.22
2023-05-20T16:01:28.558Z,101507.84
2023-05-20T16:03:57.776Z,101507.09
2023-05-20T16:06:24.832Z,101508.81
2023-05-20T16:08:51.470Z,101501.06
2023-05-20T16:11:18.031Z,101498.03
2023-05-20T16:13:44.551Z,101502.75
2023-05-20T16:16:13.455Z,101497.53
2023-05-20T16:18:40.316Z,101515.56
2023-05-20T16:21:07.942Z,101508.13
2023-05-20T16:23:34.964Z,101509.72
2023-05-20T16:26:01.739Z,101505.78
2023-05-20T16:28:28.334Z,101515.47
2023-05-20T16:30:54.807Z,101515.13
2023-05-20T16:33:21.309Z,101505.34
2023-05-20T16:35:47.987Z,101510.97
2023-05-20T16:38:14.484Z,101504.50
2023-05-20T16:40:41.227Z,101506.06
2023-05-20T16:43:07.806Z,101499.09
2023-05-20T16:45:34.498Z,101499.19
2023-05-20T16:48:01.424Z,101494.81
2023-05-20T16:50:28.036Z,101501.31
2023-05-20T16:52:55.499Z,101501.91
2023-05-20T16:55:22.245Z,101497.94
2023-05-20T16:57:50.475Z,101496.94
2023-05-20T17:00:17.175Z,101500.72
2023-05-20T17:02:43.790Z,101500.38
2023-05-20T17:05:10.652Z,101500.47
2023-05-20T17:07:37.270Z,101509.00
2023-05-20T17:10:04.128Z,101517.19
2023-05-20T17:12:30.724Z,101520.69
2023-05-20T17:14:57.836Z,101518.34
2023-05-20T17:17:24.339Z,101533.19
2023-05-20T17:19:51.050Z,101528.63
2023-05-20T17:22:17.625Z,101524.03
2023-05-20T17:24:44.153Z,101526.84
2023-05-20T17:27:10.722Z,101520.84
2023-05-20T17:29:37.210Z,101531.22
2023-05-20T17:32:04.018Z,101519.66
2023-05-20T17:34:30.562Z,101522.97
2023-05-20T17:36:57.590Z,101523.81
2023-05-20T17:39:24.107Z,101528.22
2023-05-20T17:41:50.625Z,101532.13
2023-05-20T17:44:17.178Z,101530.88
2023-05-20T17:46:43.816Z,101524.56
2023-05-20T17:49:10.554Z,101514.56
2023-05-20T17:51:37.104Z,101518.16
2023-05-20T17:54:03.778Z,101530.19
2023-05-20T17:56:30.358Z,101517.81
2023-05-20T17:58:56.913Z,101525.09
2023-05-20T18:01:23.708Z,101520.72
2023-05-20T18:03:50.727Z,101515.91
2023-05-20T18:06:18.058Z,101523.09
2023-05-20T18:08:44.718Z,101518.88
2023-05-20T18:11:11.294Z,101522.91
2023-05-20T18:13:37.969Z,101522.16
2023-05-20T18:16:05.033Z,101523.72
2023-05-20T18:18:31.723Z,101523.03
2023-05-20T18:20:58.256Z,101521.44
2023-05-20T18:23:24.777Z,101514.00
2023-05-20T18:25:51.624Z,101513.19
2023-05-20T18:28:18.208Z,101524.16
2023-05-20T18:30:44.746Z,101527.53
2023-05-20T18:33:11.348Z,101526.72
2023-05-20T18:35:39.109Z,101519.53
2023-05-20T18:38:05.725Z,101528.41
2023-05-20T18:40:32.319Z,101528.03
2023-05-20T18:42:59.040Z,101522.09
2023-05-20T18:45:25.914Z,101522.69
2023-05-20T18:47:54.458Z,101522.34
2023-05-20T18:50:21.104Z,101530.41
2023-05-20T18:52:47.747Z,101530.41
2023-05-20T18:55:14.473Z,101528.81
2023-05-20T18:57:41.198Z,101529.81
2023-05-20T19:00:11.929Z,101536.78
2023-05-20T19:02:39.881Z,101532.47
2023-05-20T19:05:11.084Z,101538.88
2023-05-20T19:07:38.862Z,101534.91
2023-05-20T19:10:05.941Z,101541.78
2023-05-20T19:12:32.808Z,101543.13
2023-05-20T19:14:59.370Z,101552.34
2023-05-20T19:17:26.147Z,101549.19
2023-05-20T19:19:52.682Z,101535.41
2023-05-20T19:22:19.210Z,101547.84
2023-05-20T19:24:45.735Z,101540.66
2023-05-20T19:27:12.217Z,101542.75
2023-05-20T19:29:38.786Z,101546.88
2023-05-20T19:32:05.726Z,101549.38
2023-05-20T19:34:32.262Z,101546.59
2023-05-20T19:36:58.815Z,101527.13
2023-05-20T19:39:26.711Z,101533.09
2023-05-20T19:41:53.442Z,101537.97
2023-05-20T19:44:20.078Z,101541.56
2023-05-20T19:46:47.318Z,101537.69
2023-05-20T19:49:13.829Z,101546.63
2023-05-20T19:51:40.394Z,101546.69
2023-05-20T19:54:06.879Z,101541.16
2023-05-20T19:56:33.405Z,101545.16
2023-05-20T19:59:01.791Z,101550.00
2023-05-20T20:01:28.666Z,101543.31
2023-05-20T20:03:55.461Z,101544.59
2023-05-20T20:06:22.407Z,101538.28
2023-05-20T20:08:49.228Z,101541.13
2023-05-20T20:11:15.961Z,101543.94
2023-05-20T20:13:42.498Z,101542.47
2023-05-20T20:16:09.143Z,101530.91
2023-05-20T20:18:35.712Z,101530.69
2023-05-20T20:21:05.730Z,101530.31
2023-05-20T20:23:32.822Z,101535.28
2023-05-20T20:25:59.395Z,101534.53
2023-05-20T20:28:26.143Z,101546.97
2023-05-20T20:30:52.702Z,101535.06
2023-05-20T20:33:19.707Z,101534.38
2023-05-20T20:35:46.760Z,101533.66
2023-05-20T20:38:13.444Z,101536.16
2023-05-20T20:40:41.848Z,101542.19
2023-05-20T20:43:10.417Z,101535.50
2023-05-20T20:45:37.071Z,101527.94
2023-05-20T20:48:08.180Z,101539.25
2023-05-20T20:50:35.738Z,101542.25
2023-05-20T20:53:02.570Z,101540.22
2023-05-20T20:55:32.180Z,101541.16
2023-05-20T20:58:02.492Z,101544.72
2023-05-20T21:00:29.402Z,101540.00
2023-05-20T21:02:56.237Z,101539.63
2023-05-20T21:05:26.505Z,101530.44
2023-05-20T21:07:58.326Z,101532.44
2023-05-20T21:10:29.759Z,101516.09
2023-05-20T21:12:57.270Z,101514.53
2023-05-20T21:15:24.655Z,101511.31
2023-05-20T21:17:51.867Z,101521.34
2023-05-20T21:20:24.191Z,101510.16
2023-05-20T21:22:50.860Z,101512.56
2023-05-20T21:25:17.480Z,101516.94
2023-05-20T21:27:44.094Z,101516.19
2023-05-20T21:30:11.601Z,101513.00
2023-05-20T21:32:38.652Z,101497.06
2023-05-20T21:35:05.721Z,101504.25
2023-05-20T21:37:32.271Z,101496.63
2023-05-20T21:39:58.843Z,101497.56
2023-05-20T21:42:25.462Z,101499.19
2023-05-20T21:44:51.945Z,101509.63
2023-05-20T21:47:20.561Z,101504.03
2023-05-20T21:49:48.198Z,101492.63
2023-05-20T21:52:14.823Z,101497.81
2023-05-20T21:54:41.757Z,101495.44
2023-05-20T21:57:08.310Z,101492.75
2023-05-20T21:59:35.121Z,101492.44
2023-05-20T22:02:01.843Z,101493.28
2023-05-20T22:04:28.744Z,101489.34
2023-05-20T22:06:56.485Z,101488.13
2023-05-20T22:09:23.136Z,101481.31
2023-05-20T22:11:49.701Z,101486.66
2023-05-20T22:14:16.852Z,101478.28
2023-05-20T22:16:46.826Z,101474.31
2023-05-20T22:19:15.182Z,101476.00
2023-05-20T22:21:50.097Z,101477.94
2023-05-20T22:24:17.838Z,101480.06
2023-05-20T22:26:44.588Z,101471.28
2023-05-20T22:29:11.104Z,101463.31
2023-05-20T22:31:38.247Z,101466.47
2023-05-20T22:34:05.487Z,101460.00
2023-05-20T22:36:36.198Z,101453.69
2023-05-20T22:39:04.469Z,101457.63
2023-05-20T22:41:31.401Z,101455.31
2023-05-20T22:43:58.007Z,101454.19
2023-05-20T22:46:25.228Z,101443.84
2023-05-20T22:48:55.377Z,101441.44
2023-05-20T22:51:21.978Z,101439.06
2023-05-20T22:53:49.069Z,101439.06
2023-05-20T22:56:15.756Z,101428.00
2023-05-20T22:58:42.593Z,101431.94
2023-05-20T23:01:10.427Z,101423.16
2023-05-20T23:03:37.923Z,101416.09
2023-05-20T23:06:04.724Z,101416.88
2023-05-20T23:08:31.316Z,101416.09
2023-05-20T23:10:57.805Z,101416.09
2023-05-20T23:13:24.290Z,101415.28
2023-05-20T23:15:50.851Z,101410.13
2023-05-20T23:18:18.323Z,101408.56
2023-05-20T23:20:44.872Z,101406.16
2023-05-20T23:23:14.442Z,101401.78
2023-05-20T23:25:43.011Z,101398.59
2023-05-20T23:28:12.944Z,101404.66
2023-05-20T23:30:39.656Z,101395.53
2023-05-20T23:33:06.567Z,101397.97
2023-05-20T23:35:33.302Z,101396.44
2023-05-20T23:37:59.924Z,101400.44
2023-05-20T23:40:32.298Z,101392.47
2023-05-20T23:42:58.817Z,101385.28
2023-05-20T23:45:25.338Z,101378.19
2023-05-20T23:47:51.851Z,101388.56
2023-05-20T23:50:18.372Z,101387.75
2023-05-20T23:52:46.253Z,101380.69
2023-05-20T23:55:14.315Z,101383.16
2023-05-20T23:57:41.363Z,101381.59
